Time;durP1;ratioP1;P1;durP2;ratioP2;P2;SDS_P1;SDS_P2;PMS_P1;PMS_P2;Temp;Humidity;BMP_temperature;BMP_pressure;BME280_temperature;BME280_humidity;BME280_pressure;Samples;Min_cycle;Max_cycle;Signal;HPM_P1;HPM_P2
2022/07/05 00:01:54;;;;;;;4.68;3.13;;;18.80;99.90;;;;;;5132999;28;20671;-56
2022/07/05 00:04:20;;;;;;;3.63;2.95;;;18.60;99.90;;;;;;5131418;28;20168;-56
2022/07/05 00:09:30;;;;;;;6.57;3.22;;;18.70;99.90;;;;;;5132748;28;20211;-55
2022/07/05 00:11:55;;;;;;;3.83;3.15;;;18.60;99.90;;;;;;5133148;27;20167;-55
2022/07/05 00:14:21;;;;;;;5.53;3.30;;;18.60;99.90;;;;;;5131349;28;20175;-55
2022/07/05 00:16:47;;;;;;;4.18;3.40;;;18.70;99.90;;;;;;5132613;28;20223;-55
2022/07/05 00:19:12;;;;;;;4.25;3.15;;;18.60;99.90;;;;;;5132685;28;20291;-55
2022/07/05 00:21:38;;;;;;;3.35;2.90;;;18.70;99.90;;;;;;5132566;28;20187;-55
2022/07/05 00:24:03;;;;;;;17.50;4.63;;;18.80;99.90;;;;;;5132545;28;20243;-55
2022/07/05 00:26:29;;;;;;;12.43;4.13;;;18.70;99.90;;;;;;5132366;28;20714;-55
2022/07/05 00:28:54;;;;;;;14.05;4.35;;;18.80;99.90;;;;;;5132994;28;20204;-55
2022/07/05 00:31:20;;;;;;;8.88;3.17;;;18.80;99.90;;;;;;5133225;27;20164;-55
2022/07/05 00:33:46;;;;;;;12.23;3.78;;;18.80;99.90;;;;;;5136428;27;20673;-55
2022/07/05 00:36:11;;;;;;;13.68;4.25;;;18.80;99.90;;;;;;5136389;27;20179;-55
2022/07/05 00:38:37;;;;;;;7.55;3.85;;;18.80;99.90;;;;;;5136359;27;20179;-55
2022/07/05 00:41:03;;;;;;;11.65;4.45;;;18.80;99.90;;;;;;5135037;27;20530;-55
2022/07/05 00:43:28;;;;;;;15.70;3.75;;;18.80;99.90;;;;;;5136232;27;20168;-55
2022/07/05 00:45:54;;;;;;;10.13;3.63;;;18.70;99.90;;;;;;5136537;27;20172;-56
2022/07/05 00:48:20;;;;;;;12.95;3.85;;;18.70;99.90;;;;;;5134784;27;20589;-54
2022/07/05 00:50:45;;;;;;;6.00;3.47;;;18.70;99.90;;;;;;5136103;27;20179;-55
2022/07/05 00:53:11;;;;;;;8.23;3.35;;;18.70;99.90;;;;;;5136099;27;20160;-55
2022/07/05 00:55:37;;;;;;;8.38;3.60;;;18.60;99.90;;;;;;5135985;27;20228;-56
2022/07/05 00:58:03;;;;;;;4.80;3.45;;;18.60;99.90;;;;;;5136057;27;20160;-55
2022/07/05 01:00:28;;;;;;;5.13;3.75;;;18.60;99.90;;;;;;5135801;27;20170;-54
2022/07/05 01:02:55;;;;;;;5.07;3.30;;;18.50;99.90;;;;;;5136154;27;20247;-55
2022/07/05 01:05:22;;;;;;;7.47;3.60;;;18.40;99.90;;;;;;5135823;27;20253;-55
2022/07/05 01:07:47;;;;;;;4.03;3.53;;;18.30;99.90;;;;;;5135705;27;20184;-55
2022/07/05 01:10:13;;;;;;;4.68;3.42;;;18.20;99.90;;;;;;5135661;27;20252;-55
2022/07/05 01:12:40;;;;;;;4.38;3.25;;;18.20;99.90;;;;;;5135727;27;20214;-56
2022/07/05 01:15:07;;;;;;;5.15;3.17;;;18.20;99.90;;;;;;5135982;27;20195;-55
2022/07/05 01:17:36;;;;;;;5.05;3.33;;;18.20;99.90;;;;;;5135704;27;20629;-56
2022/07/05 01:20:04;;;;;;;6.72;3.20;;;18.20;99.90;;;;;;5135794;27;20168;-55
2022/07/05 01:22:59;;;;;;;7.95;3.40;;;18.30;99.90;;;;;;5134305;27;20267;-55
2022/07/05 01:25:26;;;;;;;6.60;3.90;;;18.30;99.90;;;;;;5132842;27;20220;-55
2022/07/05 01:27:54;;;;;;;4.65;3.03;;;18.10;99.90;;;;;;5135297;27;20168;-55
2022/07/05 01:30:20;;;;;;;5.22;3.13;;;18.30;99.90;;;;;;5135384;27;20534;-55
2022/07/05 01:32:46;;;;;;;8.45;3.85;;;18.20;99.90;;;;;;5135349;27;20213;-55
2022/07/05 01:35:12;;;;;;;7.40;3.42;;;18.20;99.90;;;;;;5135260;27;20227;-55
2022/07/05 01:37:39;;;;;;;5.45;3.20;;;15.40;99.90;;;;;;5135538;27;20191;-55
2022/07/05 01:40:06;;;;;;;4.40;3.38;;;18.10;99.90;;;;;;5135445;27;20172;-55
2022/07/05 01:42:32;;;;;;;4.50;3.30;;;18.10;99.90;;;;;;5133853;27;20258;-54
2022/07/05 01:44:58;;;;;;;6.78;3.20;;;17.90;99.90;;;;;;5135388;27;20246;-55
2022/07/05 01:47:24;;;;;;;6.15;3.30;;;17.90;99.90;;;;;;5135381;27;20168;-55
2022/07/05 01:49:53;;;;;;;5.05;3.05;;;17.90;99.90;;;;;;5134937;27;20213;-55
2022/07/05 01:52:21;;;;;;;3.95;3.20;;;17.90;99.90;;;;;;5134955;27;20196;-55
2022/07/05 01:54:47;;;;;;;5.43;2.83;;;17.80;99.90;;;;;;5134907;27;20164;-55
2022/07/05 01:57:13;;;;;;;8.85;3.10;;;17.90;99.90;;;;;;5134843;27;20636;-55
2022/07/05 01:59:39;;;;;;;3.95;2.88;;;17.90;99.90;;;;;;5135090;27;20176;-55
2022/07/05 02:02:07;;;;;;;7.88;3.05;;;17.90;99.90;;;;;;5135093;27;20168;-55
2022/07/05 02:04:36;;;;;;;4.93;3.17;;;18.00;99.90;;;;;;5134792;27;20175;-55
2022/07/05 02:07:07;;;;;;;3.55;2.92;;;18.10;99.90;;;;;;5134670;27;20193;-55
2022/07/05 02:09:33;;;;;;;3.80;2.90;;;18.00;99.90;;;;;;5134762;27;20211;-55
2022/07/05 02:11:58;;;;;;;5.20;3.50;;;18.10;99.90;;;;;;5134648;27;20171;-55
2022/07/05 02:14:24;;;;;;;3.75;3.25;;;18.10;99.90;;;;;;5134837;27;20530;-55
2022/07/05 02:16:49;;;;;;;8.93;3.30;;;18.20;99.90;;;;;;5134439;27;20663;-55
2022/07/05 02:19:15;;;;;;;5.43;3.15;;;18.10;99.90;;;;;;5134341;27;20247;-54
2022/07/05 02:21:41;;;;;;;5.13;3.13;;;18.10;99.90;;;;;;5134330;27;20195;-54
2022/07/05 02:24:07;;;;;;;12.32;4.28;;;18.10;99.90;;;;;;5134304;27;20164;-55
2022/07/05 02:26:33;;;;;;;8.63;3.80;;;18.10;99.90;;;;;;5134078;27;20207;-55
2022/07/05 02:29:00;;;;;;;5.00;2.90;;;18.20;99.90;;;;;;5134112;27;20226;-55
2022/07/05 02:31:25;;;;;;;5.45;3.40;;;18.20;99.90;;;;;;5134479;27;20160;-55
2022/07/05 02:33:52;;;;;;;5.75;3.38;;;18.30;99.90;;;;;;5134351;27;20224;-55
2022/07/05 02:36:18;;;;;;;3.88;3.35;;;18.30;99.90;;;;;;5134317;27;20168;-54
2022/07/05 02:38:44;;;;;;;6.13;3.40;;;18.30;99.90;;;;;;5133922;27;20586;-54
2022/07/05 02:41:10;;;;;;;3.80;2.67;;;18.40;99.90;;;;;;5134310;27;20175;-55
2022/07/05 02:43:37;;;;;;;4.43;3.10;;;18.30;99.90;;;;;;5132735;27;20613;-55
2022/07/05 02:46:04;;;;;;;5.60;2.78;;;18.20;99.90;;;;;;5133826;27;20192;-55
2022/07/05 02:48:30;;;;;;;5.70;3.08;;;18.20;99.90;;;;;;5133749;27;20202;-55
2022/07/05 02:50:56;;;;;;;7.18;2.92;;;18.10;99.90;;;;;;5133694;27;20176;-55
2022/07/05 02:53:22;;;;;;;5.10;2.88;;;18.10;99.90;;;;;;5133735;27;20712;-55
2022/07/05 02:55:48;;;;;;;8.70;3.20;;;18.10;99.90;;;;;;5132212;27;20207;-54
2022/07/05 02:58:13;;;;;;;7.18;3.40;;;18.00;99.90;;;;;;5133677;27;20251;-55
2022/07/05 03:00:39;;;;;;;6.82;3.47;;;18.10;99.90;;;;;;5133577;27;20179;-55
2022/07/05 03:03:04;;;;;;;5.70;2.95;;;18.10;99.90;;;;;;5133637;27;20622;-55
2022/07/05 03:05:30;;;;;;;7.40;3.33;;;18.10;99.90;;;;;;5133577;27;20171;-55
2022/07/05 03:07:56;;;;;;;11.88;3.45;;;18.00;99.90;;;;;;5133694;27;20164;-55
2022/07/05 03:10:21;;;;;;;9.20;3.30;;;18.00;99.90;;;;;;5133594;27;20255;-55
2022/07/05 03:12:47;;;;;;;9.25;3.05;;;17.90;99.90;;;;;;5133347;27;20167;-55
2022/07/05 03:15:13;;;;;;;5.97;3.20;;;17.80;99.90;;;;;;5133340;27;20219;-55
2022/07/05 03:17:38;;;;;;;9.20;3.58;;;17.80;99.90;;;;;;5133399;27;20280;-55
2022/07/05 03:20:04;;;;;;;9.50;3.78;;;17.80;99.90;;;;;;5132006;27;20250;-55
2022/07/05 03:22:30;;;;;;;9.98;3.78;;;17.80;99.90;;;;;;5133119;27;20168;-55
2022/07/05 03:24:56;;;;;;;10.48;3.45;;;17.80;99.90;;;;;;5133286;27;20171;-56
2022/07/05 03:27:21;;;;;;;9.93;3.70;;;17.90;99.90;;;;;;5133253;27;20175;-56
2022/07/05 03:29:47;;;;;;;15.50;3.55;;;17.90;99.90;;;;;;5133021;27;20230;-56
2022/07/05 03:32:12;;;;;;;5.60;3.78;;;17.80;99.90;;;;;;5133117;27;20161;-55
2022/07/05 03:34:38;;;;;;;8.02;3.53;;;17.80;99.90;;;;;;5133126;27;20627;-55
2022/07/05 03:37:04;;;;;;;7.75;3.47;;;17.70;99.90;;;;;;5133333;27;20168;-56
2022/07/05 03:39:29;;;;;;;8.27;3.60;;;17.60;99.90;;;;;;5133011;27;20232;-56
2022/07/05 03:41:55;;;;;;;6.25;3.22;;;17.50;99.90;;;;;;5133416;27;20171;-56
2022/07/05 03:44:20;;;;;;;10.23;3.60;;;17.60;99.90;;;;;;5132950;27;20176;-56
2022/07/05 03:46:46;;;;;;;8.70;4.15;;;17.60;99.90;;;;;;5132857;27;20164;-55
2022/07/05 03:49:11;;;;;;;7.13;3.92;;;17.70;99.90;;;;;;5132795;27;20204;-56
2022/07/05 03:51:37;;;;;;;8.50;3.78;;;17.60;99.90;;;;;;5132897;28;20156;-55
2022/07/05 03:54:03;;;;;;;7.55;3.90;;;17.50;99.90;;;;;;5132872;28;20167;-56
2022/07/05 03:56:29;;;;;;;10.30;4.05;;;17.50;99.90;;;;;;5132832;27;20164;-55
2022/07/05 03:58:55;;;;;;;7.35;3.80;;;17.60;99.90;;;;;;5133115;27;20179;-55
2022/07/05 04:01:21;;;;;;;11.38;4.20;;;17.60;99.90;;;;;;5132773;27;20220;-55
2022/07/05 04:03:47;;;;;;;10.10;4.10;;;17.60;99.90;;;;;;5132744;27;20561;-55
2022/07/05 04:06:13;;;;;;;9.80;4.38;;;17.60;99.90;;;;;;5133497;27;20212;-54
2022/07/05 04:08:38;;;;;;;7.53;4.07;;;17.70;99.90;;;;;;5136621;27;20659;-55
2022/07/05 04:11:05;;;;;;;13.07;4.32;;;17.80;99.90;;;;;;5137290;27;20574;-55
2022/07/05 04:13:30;;;;;;;10.23;3.88;;;17.90;99.90;;;;;;5137087;27;20175;-55
2022/07/05 04:15:56;;;;;;;13.35;4.10;;;17.80;99.90;;;;;;5137135;27;20243;-55
2022/07/05 04:18:22;;;;;;;13.07;4.30;;;17.80;99.90;;;;;;5135477;27;20202;-55
2022/07/05 04:20:48;;;;;;;12.63;4.22;;;17.80;99.90;;;;;;5136901;27;20164;-56
2022/07/05 04:23:14;;;;;;;9.57;4.15;;;17.80;99.90;;;;;;5136718;27;20648;-55
2022/07/05 04:25:40;;;;;;;10.75;4.43;;;17.90;99.90;;;;;;5136488;27;20348;-55
2022/07/05 04:28:05;;;;;;;8.32;3.50;;;17.90;99.90;;;;;;5136606;27;20191;-55
2022/07/05 04:30:31;;;;;;;11.13;3.65;;;18.00;99.90;;;;;;5136642;27;20646;-54
2022/07/05 04:32:57;;;;;;;8.18;4.05;;;18.00;99.90;;;;;;5136826;27;20289;-55
2022/07/05 04:35:23;;;;;;;14.40;3.90;;;18.20;99.90;;;;;;5136483;27;20206;-54
2022/07/05 04:37:49;;;;;;;11.48;3.78;;;18.30;99.90;;;;;;5136422;27;20632;-55
2022/07/05 04:40:15;;;;;;;9.93;4.65;;;18.40;99.90;;;;;;5136251;27;20171;-55
2022/07/05 04:42:41;;;;;;;15.60;4.47;;;18.50;99.90;;;;;;5136180;27;20562;-55
2022/07/05 04:45:08;;;;;;;12.43;3.85;;;18.60;99.90;;;;;;5135336;27;20203;-55
2022/07/05 04:47:34;;;;;;;11.85;4.30;;;18.70;99.90;;;;;;5136153;27;20210;-55
2022/07/05 04:50:00;;;;;;;8.70;4.68;;;18.70;99.90;;;;;;5136390;27;20704;-56
2022/07/05 04:52:26;;;;;;;10.63;3.88;;;18.60;99.90;;;;;;5136300;27;20164;-55
2022/07/05 04:54:52;;;;;;;9.38;4.65;;;18.60;99.90;;;;;;5136027;27;20190;-55
2022/07/05 04:57:18;;;;;;;10.65;4.05;;;18.60;99.90;;;;;;5136200;27;20164;-55
2022/07/05 04:59:44;;;;;;;12.35;4.68;;;18.90;99.90;;;;;;5135870;27;20175;-55
2022/07/05 05:02:10;;;;;;;12.32;4.30;;;19.00;99.90;;;;;;5135823;27;20243;-55
2022/07/05 05:04:36;;;;;;;11.52;4.60;;;19.00;99.90;;;;;;5135914;27;20595;-55
2022/07/05 05:07:01;;;;;;;8.98;4.57;;;18.90;99.90;;;;;;5135793;27;20160;-55
2022/07/05 05:09:27;;;;;;;10.77;4.30;;;19.00;99.90;;;;;;5136024;27;20236;-55
2022/07/05 05:11:52;;;;;;;15.93;4.13;;;19.10;99.90;;;;;;5135726;27;20160;-55
2022/07/05 05:14:18;;;;;;;10.23;4.15;;;19.30;99.90;;;;;;5135666;27;20164;-55
2022/07/05 05:16:44;;;;;;;11.43;4.20;;;19.40;99.90;;;;;;5134089;27;20160;-55
2022/07/05 05:19:09;;;;;;;8.77;4.50;;;19.50;99.90;;;;;;5135315;27;20644;-55
2022/07/05 05:21:35;;;;;;;11.25;3.80;;;19.50;99.90;;;;;;5135653;27;20157;-56
2022/07/05 05:24:01;;;;;;;13.85;4.40;;;19.70;99.90;;;;;;5135526;27;20629;-55
2022/07/05 05:26:26;;;;;;;13.93;5.65;;;19.80;99.90;;;;;;5134719;27;20219;-55
2022/07/05 05:28:52;;;;;;;14.38;4.82;;;19.80;99.90;;;;;;5134170;28;20192;-55
2022/07/05 05:31:18;;;;;;;9.98;4.70;;;19.90;99.90;;;;;;5132553;28;20179;-55
2022/07/05 05:33:45;;;;;;;12.75;3.88;;;20.00;99.90;;;;;;5132914;27;20644;-55
2022/07/05 05:36:10;;;;;;;9.63;4.22;;;20.00;99.90;;;;;;5133101;27;20186;-55
2022/07/05 05:38:36;;;;;;;8.60;4.38;;;20.10;99.90;;;;;;5132681;27;20168;-54
2022/07/05 05:41:02;;;;;;;13.25;4.00;;;20.10;99.90;;;;;;5133022;28;20176;-55
2022/07/05 05:43:27;;;;;;;10.93;4.38;;;20.20;99.90;;;;;;5131689;28;20655;-55
2022/07/05 05:45:53;;;;;;;8.48;4.00;;;20.10;99.90;;;;;;5133026;28;20183;-55
2022/07/05 05:48:20;;;;;;;12.10;4.18;;;20.10;99.90;;;;;;5132395;28;20200;-55
2022/07/05 05:50:46;;;;;;;10.02;4.15;;;20.10;99.90;;;;;;5132631;27;20170;-55
2022/07/05 05:53:11;;;;;;;22.42;4.85;;;20.10;99.90;;;;;;5132524;27;20160;-55
2022/07/05 05:55:37;;;;;;;7.82;4.22;;;20.20;99.90;;;;;;5132590;28;20515;-57
2022/07/05 05:58:14;;;;;;;11.85;4.88;;;20.20;99.90;;;;;;5132410;28;20164;-55
2022/07/05 06:00:41;;;;;;;7.13;4.75;;;20.20;99.90;;;;;;5132401;27;20178;-55
2022/07/05 06:03:07;;;;;;;8.13;4.53;;;20.30;99.90;;;;;;5132472;27;20944;-55
2022/07/05 06:05:32;;;;;;;10.68;4.70;;;20.30;99.90;;;;;;5132332;27;20176;-55
2022/07/05 06:07:58;;;;;;;9.73;4.70;;;20.10;99.90;;;;;;5132361;28;20179;-55
2022/07/05 06:10:26;;;;;;;7.63;3.95;;;20.20;99.90;;;;;;5132514;28;20199;-55
2022/07/05 06:12:53;;;;;;;7.75;3.70;;;20.30;99.90;;;;;;5132252;27;20183;-55
2022/07/05 06:15:20;;;;;;;8.85;3.97;;;20.40;99.90;;;;;;5132279;27;20217;-56
2022/07/05 06:17:46;;;;;;;8.00;4.05;;;20.50;99.90;;;;;;5132213;27;20164;-56
2022/07/05 06:20:24;;;;;;;7.78;4.28;;;20.40;99.90;;;;;;5131965;27;20549;-56
2022/07/05 06:22:51;;;;;;;7.82;4.10;;;20.30;99.90;;;;;;5131969;27;20255;-55
2022/07/05 06:25:17;;;;;;;8.85;4.07;;;20.30;99.90;;;;;;5088598;27;1232371;-55
2022/07/05 06:27:47;;;;;;;7.28;3.90;;;20.40;99.90;;;;;;5133212;27;20179;-56
2022/07/05 06:30:15;;;;;;;10.52;3.80;;;20.50;99.90;;;;;;5131827;27;20216;-55
2022/07/05 06:32:43;;;;;;;9.57;4.03;;;20.60;99.90;;;;;;5133127;27;20204;-55
2022/07/05 06:35:09;;;;;;;9.07;3.63;;;20.80;99.90;;;;;;5132778;27;20690;-55
2022/07/05 06:37:51;;;;;;;10.07;3.92;;;20.70;99.90;;;;;;5132793;27;20164;-55
2022/07/05 06:40:23;;;;;;;13.00;4.55;;;20.70;99.90;;;;;;5132433;27;20263;-55
2022/07/05 06:42:49;;;;;;;14.60;4.65;;;20.70;99.90;;;;;;5132745;27;20179;-56
2022/07/05 06:45:15;;;;;;;12.55;4.28;;;20.70;99.90;;;;;;5131329;27;20704;-56
2022/07/05 06:47:42;;;;;;;16.45;4.47;;;20.90;99.90;;;;;;5132769;27;20176;-60
2022/07/05 06:50:08;;;;;;;12.18;4.10;;;21.00;99.90;;;;;;5132291;27;20222;-56
2022/07/05 06:52:34;;;;;;;12.52;3.97;;;21.00;99.90;;;;;;5132431;27;20164;-57
2022/07/05 06:55:00;;;;;;;26.42;4.80;;;21.20;99.90;;;;;;5132339;27;20164;-55
2022/07/05 06:57:26;;;;;;;21.98;4.88;;;21.20;99.90;;;;;;5132536;27;20183;-56
2022/07/05 06:59:52;;;;;;;20.00;5.10;;;21.30;99.90;;;;;;5132074;27;20179;-55
2022/07/05 07:02:19;;;;;;;19.23;4.85;;;21.60;99.90;;;;;;5132033;27;20172;-55
2022/07/05 07:04:45;;;;;;;16.77;4.38;;;21.70;99.90;;;;;;5132412;27;20262;-56
2022/07/05 07:10:03;;;;;;;16.13;4.65;;;21.50;99.90;;;;;;5132313;27;20221;-54
2022/07/05 07:12:29;;;;;;;13.88;4.32;;;21.70;99.90;;;;;;5132095;27;20724;-54
2022/07/05 07:14:56;;;;;;;12.30;4.13;;;21.70;99.90;;;;;;5132571;27;20198;-53
2022/07/05 07:17:22;;;;;;;13.73;3.60;;;21.80;99.90;;;;;;5131900;27;20168;-54
2022/07/05 07:19:48;;;;;;;15.32;3.90;;;21.60;99.90;;;;;;5132136;27;20179;-54
2022/07/05 07:22:14;;;;;;;9.55;3.88;;;21.70;99.90;;;;;;5131686;27;20170;-54
2022/07/05 07:24:39;;;;;;;11.80;3.95;;;21.80;99.90;;;;;;5131647;27;20180;-54
2022/07/05 07:27:06;;;;;;;13.40;3.63;;;21.80;99.90;;;;;;5131849;27;20175;-54
2022/07/05 07:29:36;;;;;;;9.48;3.70;;;21.90;99.90;;;;;;5131919;27;20291;-54
2022/07/05 07:32:03;;;;;;;7.47;3.30;;;22.10;99.90;;;;;;5131577;27;20167;-53
2022/07/05 07:34:29;;;;;;;9.25;3.47;;;22.00;99.90;;;;;;5131789;27;20160;-53
2022/07/05 07:36:55;;;;;;;10.98;3.50;;;22.30;99.90;;;;;;5132238;27;20182;-54
2022/07/05 07:39:22;;;;;;;12.68;3.60;;;22.50;99.90;;;;;;5131708;27;20624;-54
2022/07/05 07:41:48;;;;;;;10.73;3.60;;;22.40;99.90;;;;;;5131549;27;20199;-55
2022/07/05 07:44:14;;;;;;;8.18;3.55;;;22.50;99.90;;;;;;5131528;27;20179;-55
2022/07/05 07:46:40;;;;;;;7.10;3.67;;;22.60;99.90;;;;;;5131631;27;20239;-55
2022/07/05 07:49:07;;;;;;;12.45;3.20;;;22.70;99.90;;;;;;5131499;27;20250;-55
2022/07/05 07:51:33;;;;;;;9.20;3.50;;;22.50;99.90;;;;;;5131557;27;20160;-55
2022/07/05 07:53:59;;;;;;;13.05;3.45;;;22.70;99.90;;;;;;5131374;28;20202;-54
2022/07/05 07:56:25;;;;;;;9.07;3.10;;;22.70;99.90;;;;;;5131783;27;20200;-55
2022/07/05 07:58:50;;;;;;;8.98;3.38;;;22.70;99.90;;;;;;5131416;27;20163;-56
2022/07/05 08:01:16;;;;;;;5.97;2.63;;;22.80;99.90;;;;;;5131378;27;20167;-54
2022/07/05 08:03:42;;;;;;;6.55;3.05;;;22.90;99.90;;;;;;5131437;28;20174;-54
2022/07/05 08:06:10;;;;;;;9.10;3.30;;;23.00;99.90;;;;;;5131241;27;20197;-50
2022/07/05 08:08:39;;;;;;;8.77;3.00;;;23.20;99.90;;;;;;5131503;27;20203;-54
2022/07/05 08:11:06;;;;;;;6.18;3.17;;;23.00;99.90;;;;;;5131418;27;20167;-54
2022/07/05 08:13:32;;;;;;;5.15;2.33;;;23.20;99.90;;;;;;5131506;27;20191;-54
2022/07/05 08:15:58;;;;;;;5.13;3.17;;;23.30;99.90;;;;;;5131567;28;20661;-54
2022/07/05 08:23:52;;;;;;;2.53;1.70;;;23.60;99.90;;;;;;5131253;28;20602;-53
2022/07/05 08:26:18;;;;;;;4.07;2.58;;;23.70;99.90;;;;;;5130926;27;20219;-53
2022/07/05 08:28:44;;;;;;;3.58;2.25;;;23.90;99.90;;;;;;5131032;28;20559;-53
2022/07/05 08:31:09;;;;;;;4.80;2.03;;;24.30;99.90;;;;;;5131125;27;20164;-53
2022/07/05 08:33:35;;;;;;;7.90;2.30;;;24.60;99.90;;;;;;5131132;28;20641;-53
2022/07/05 08:36:01;;;;;;;4.50;1.77;;;24.60;99.90;;;;;;5131270;28;20620;-53
2022/07/05 08:38:26;;;;;;;3.92;2.20;;;24.60;99.90;;;;;;5131319;28;20191;-54
2022/07/05 08:40:55;;;;;;;10.65;2.80;;;24.80;99.90;;;;;;5131104;27;20169;-54
2022/07/05 08:43:22;;;;;;;5.40;2.72;;;24.90;99.90;;;;;;5130884;27;20259;-54
2022/07/05 08:45:49;;;;;;;9.50;2.90;;;25.00;99.90;;;;;;5130974;27;21012;-54
2022/07/05 08:48:16;;;;;;;3.05;2.35;;;25.30;99.90;;;;;;5130785;27;20168;-54
2022/07/05 08:50:43;;;;;;;4.50;2.38;;;25.30;99.90;;;;;;5130946;27;20588;-53
2022/07/05 08:53:09;;;;;;;6.80;2.15;;;25.40;99.90;;;;;;5132921;27;20217;-53
2022/07/05 08:55:35;;;;;;;6.40;2.00;;;25.60;99.90;;;;;;5135032;27;20172;-54
2022/07/05 08:58:02;;;;;;;3.53;2.13;;;25.40;99.90;;;;;;5134655;27;20621;-54
2022/07/05 09:00:28;;;;;;;6.07;2.00;;;24.90;99.90;;;;;;5134933;27;20212;-54
2022/07/05 09:02:55;;;;;;;9.52;1.77;;;25.30;99.90;;;;;;5134870;27;20634;-53
2022/07/05 09:05:22;;;;;;;4.90;2.40;;;25.30;99.90;;;;;;5134542;27;20172;-54
2022/07/05 09:08:01;;;;;;;6.13;2.40;;;25.60;99.90;;;;;;5134597;27;20159;-53
2022/07/05 09:10:30;;;;;;;8.95;2.35;;;25.80;99.90;;;;;;5134721;27;20199;-54
2022/07/05 09:12:57;;;;;;;7.18;2.40;;;26.20;99.90;;;;;;5134780;27;20191;-54
2022/07/05 09:15:23;;;;;;;6.00;2.10;;;25.80;99.40;;;;;;5134205;27;20160;-54
2022/07/05 09:17:49;;;;;;;6.50;2.38;;;26.00;99.90;;;;;;5134317;27;20160;-53
2022/07/05 09:20:17;;;;;;;9.30;2.20;;;26.00;99.90;;;;;;5134119;27;20175;-54
2022/07/05 09:22:54;;;;;;;5.43;2.08;;;26.40;99.40;;;;;;5134196;27;20636;-54
2022/07/05 09:25:24;;;;;;;6.68;1.90;;;25.90;99.30;;;;;;5134112;27;20234;-54
2022/07/05 09:27:52;;;;;;;4.25;2.03;;;26.20;98.90;;;;;;5134067;27;20163;-54
2022/07/05 09:30:30;;;;;;;4.90;1.83;;;26.20;96.60;;;;;;5133893;27;20214;-54
2022/07/05 09:33:04;;;;;;;5.88;2.10;;;26.30;95.10;;;;;;5134358;27;20201;-54
2022/07/05 09:35:31;;;;;;;17.55;3.97;;;25.80;96.50;;;;;;5134038;27;20182;-53
2022/07/05 09:37:57;;;;;;;2.67;1.65;;;25.40;99.60;;;;;;5134367;27;20194;-54
2022/07/05 09:40:22;;;;;;;4.57;2.35;;;25.40;98.60;;;;;;5133857;27;20533;-53
2022/07/05 09:42:48;;;;;;;3.88;2.05;;;25.70;98.10;;;;;;5133859;27;20233;-54
2022/07/05 09:45:23;;;;;;;4.53;2.00;;;25.60;99.00;;;;;;5133974;27;20588;-54
2022/07/05 09:47:48;;;;;;;6.38;2.50;;;25.90;99.10;;;;;;5133985;27;20171;-53
2022/07/05 09:50:14;;;;;;;1.92;1.75;;;26.00;97.80;;;;;;5133445;27;20211;-53
2022/07/05 09:52:41;;;;;;;6.30;2.15;;;26.10;99.40;;;;;;5133750;27;20178;-53
2022/07/05 09:55:18;;;;;;;7.00;2.40;;;26.00;99.10;;;;;;5133534;27;20667;-53
2022/07/05 09:57:47;;;;;;;5.78;2.10;;;26.30;97.50;;;;;;5133822;27;20174;-53
2022/07/05 10:00:17;;;;;;;8.20;2.22;;;26.60;96.50;;;;;;5133686;27;20191;-53
2022/07/05 10:02:51;;;;;;;7.40;2.00;;;26.70;93.60;;;;;;5133528;27;20652;-53
2022/07/05 10:05:22;;;;;;;5.03;1.90;;;26.20;95.20;;;;;;5132419;27;20178;-53
2022/07/05 10:07:49;;;;;;;4.80;1.90;;;25.90;95.10;;;;;;5133333;27;20155;-53
2022/07/05 10:10:18;;;;;;;4.13;1.80;;;26.50;95.70;;;;;;5133335;27;20213;-53
2022/07/05 10:12:45;;;;;;;5.13;1.83;;;26.10;95.10;;;;;;5132138;27;20744;-53
2022/07/05 10:15:25;;;;;;;5.25;1.92;;;25.80;95.60;;;;;;5133371;27;20573;-54
2022/07/05 10:18:08;;;;;;;3.80;1.85;;;25.80;94.70;;;;;;5133217;27;20220;-54
2022/07/05 10:20:42;;;;;;;6.18;2.30;;;26.10;94.80;;;;;;5132075;27;20563;-54
2022/07/05 10:23:11;;;;;;;3.28;1.80;;;26.30;92.80;;;;;;5133039;27;20166;-54
2022/07/05 10:25:38;;;;;;;5.45;1.90;;;26.50;92.00;;;;;;5132792;27;20710;-54
2022/07/05 10:28:05;;;;;;;5.05;1.88;;;26.50;92.40;;;;;;5131667;27;20262;-54
2022/07/05 10:30:31;;;;;;;3.42;1.83;;;26.30;92.00;;;;;;5132899;27;20562;-54
2022/07/05 10:32:57;;;;;;;3.65;1.70;;;25.80;93.50;;;;;;5132083;27;20171;-54
2022/07/05 10:35:24;;;;;;;3.13;2.10;;;25.50;94.90;;;;;;5132755;27;20174;-54
2022/07/05 10:37:50;;;;;;;4.60;2.03;;;25.00;95.90;;;;;;5132950;27;20164;-54
2022/07/05 10:40:18;;;;;;;2.88;1.70;;;25.20;92.40;;;;;;5132712;27;20644;-54
2022/07/05 10:42:50;;;;;;;2.75;1.70;;;25.90;92.60;;;;;;5131436;27;20692;-53
2022/07/05 10:45:28;;;;;;;3.67;1.80;;;26.20;91.20;;;;;;5132826;27;20163;-53
2022/07/05 10:48:25;;;;;;;3.33;1.50;;;26.20;90.10;;;;;;5132605;27;20250;-54
2022/07/05 10:50:58;;;;;;;5.18;1.90;;;26.50;90.80;;;;;;5132608;27;20175;-54
2022/07/05 10:53:27;;;;;;;4.72;1.80;;;26.60;90.40;;;;;;5131668;27;20220;-54
2022/07/05 10:55:56;;;;;;;4.72;2.08;;;26.10;91.70;;;;;;5132570;27;20167;-54
2022/07/05 10:58:30;;;;;;;2.15;1.52;;;25.50;91.30;;;;;;5132315;27;20155;-54
2022/07/05 11:01:20;;;;;;;7.97;1.83;;;26.10;91.50;;;;;;5132642;27;20182;-54
2022/07/05 11:03:57;;;;;;;5.70;1.48;;;26.50;90.90;;;;;;5131180;27;20171;-54
2022/07/05 11:06:27;;;;;;;4.85;1.70;;;26.50;91.90;;;;;;5132098;27;20177;-54
2022/07/05 11:08:59;;;;;;;4.53;1.50;;;26.10;93.10;;;;;;5132034;27;20203;-54
2022/07/05 11:11:33;;;;;;;3.30;1.90;;;25.70;92.60;;;;;;5131376;27;20179;-54
2022/07/05 11:14:00;;;;;;;4.97;1.67;;;25.80;92.50;;;;;;5132301;27;20247;-54
2022/07/05 11:16:30;;;;;;;3.45;1.77;;;25.60;91.30;;;;;;5132244;27;20171;-53
2022/07/05 11:19:10;;;;;;;3.08;1.70;;;25.50;91.40;;;;;;5132420;27;20628;-53
2022/07/05 11:21:38;;;;;;;3.65;1.70;;;26.20;90.70;;;;;;5132141;27;20175;-54
2022/07/05 11:24:21;;;;;;;2.95;1.88;;;26.30;90.30;;;;;;5131853;27;20164;-54
2022/07/05 11:26:48;;;;;;;2.58;1.50;;;26.40;91.10;;;;;;5131751;27;20215;-54
2022/07/05 11:29:43;;;;;;;6.75;1.80;;;26.00;90.00;;;;;;5130473;27;20568;-54
2022/07/05 11:32:13;;;;;;;4.15;1.50;;;26.10;90.40;;;;;;5114177;27;20183;-53
2022/07/05 11:34:39;;;;;;;2.33;1.55;;;25.70;89.00;;;;;;5131729;27;20224;-53
2022/07/05 11:37:18;;;;;;;4.32;1.73;;;25.40;87.30;;;;;;5131932;27;20536;-53
2022/07/05 11:39:46;;;;;;;3.60;1.83;;;26.00;88.60;;;;;;5131884;27;20178;-53
2022/07/05 11:42:19;;;;;;;4.00;1.60;;;26.70;87.60;;;;;;5131624;27;20168;-53
2022/07/05 11:44:49;;;;;;;4.93;1.55;;;26.40;84.60;;;;;;5131628;27;20240;-54
2022/07/05 11:47:16;;;;;;;4.82;1.67;;;26.10;83.40;;;;;;5131651;27;20199;-54
2022/07/05 11:49:52;;;;;;;4.38;1.60;;;26.10;84.10;;;;;;5131507;27;20195;-54
2022/07/05 11:52:24;;;;;;;2.67;1.52;;;26.20;84.60;;;;;;5131724;27;20167;-54
2022/07/05 11:54:50;;;;;;;4.75;1.70;;;26.40;85.20;;;;;;5131774;27;20262;-55
2022/07/05 11:57:15;;;;;;;3.42;1.67;;;26.70;85.40;;;;;;5130214;28;20242;-54
2022/07/05 11:59:41;;;;;;;3.72;1.50;;;26.60;83.00;;;;;;5131613;28;20201;-54
2022/07/05 12:02:06;;;;;;;2.33;1.40;;;26.90;83.90;;;;;;5131418;28;20171;-54
2022/07/05 12:04:32;;;;;;;5.85;1.52;;;27.30;82.40;;;;;;5131696;28;20245;-54
2022/07/05 12:06:58;;;;;;;3.67;1.70;;;27.50;80.10;;;;;;5131822;28;20168;-54
2022/07/05 12:12:42;;;;;;;7.50;1.60;;;26.70;79.90;;;;;;5131655;28;20163;-55
2022/07/05 12:15:13;;;;;;;2.97;1.80;;;26.40;83.20;;;;;;5131352;27;20174;-55
2022/07/05 12:17:41;;;;;;;4.22;2.03;;;26.70;85.90;;;;;;5130497;28;20172;-54
2022/07/05 12:20:09;;;;;;;7.25;1.52;;;26.30;84.60;;;;;;5131391;27;20182;-55
2022/07/05 12:22:36;;;;;;;3.63;1.92;;;26.10;84.00;;;;;;5131198;27;20713;-54
2022/07/05 12:25:04;;;;;;;1.85;1.63;;;26.10;83.90;;;;;;5131040;27;20680;-54
2022/07/05 12:27:32;;;;;;;6.25;1.70;;;26.10;81.00;;;;;;5132227;27;20251;-54
2022/07/05 12:29:58;;;;;;;5.03;1.55;;;26.30;80.90;;;;;;5135471;27;20293;-54
2022/07/05 12:32:24;;;;;;;5.20;1.95;;;26.50;82.10;;;;;;5135203;27;20159;-54
2022/07/05 12:34:50;;;;;;;6.68;1.75;;;27.00;83.50;;;;;;5135066;27;20175;-54
2022/07/05 12:37:23;;;;;;;3.60;1.80;;;27.20;81.50;;;;;;5135164;27;20167;-54
2022/07/05 12:39:49;;;;;;;6.68;2.00;;;27.10;81.00;;;;;;5135087;27;20640;-54
2022/07/05 12:42:35;;;;;;;10.85;1.92;;;26.70;80.80;;;;;;5135102;27;20202;-54
2022/07/05 12:45:15;;;;;;;3.25;1.60;;;26.50;85.20;;;;;;5133706;27;20312;-54
2022/07/05 12:47:55;;;;;;;2.67;1.90;;;26.10;87.20;;;;;;5135022;27;20163;-54
2022/07/05 12:50:48;;;;;;;4.53;1.75;;;26.30;89.80;;;;;;5134692;27;20203;-54
2022/07/05 12:59:02;;;;;;;7.47;1.98;;;26.20;87.60;;;;;;5134978;27;20206;-55
2022/07/05 13:01:31;;;;;;;4.95;1.45;;;26.10;88.30;;;;;;5135025;27;20556;-54
2022/07/05 13:04:09;;;;;;;4.93;1.60;;;26.30;87.90;;;;;;5135329;27;20176;-54
2022/07/05 13:06:51;;;;;;;3.85;1.88;;;26.90;88.40;;;;;;5134851;27;20264;-54